Time;durP1;ratioP1;P1;durP2;ratioP2;P2;SDS_P1;SDS_P2;PMS_P1;PMS_P2;Temp;Humidity;BMP_temperature;BMP_pressure;BME280_temperature;BME280_humidity;BME280_pressure;Samples;Min_cycle;Max_cycle;Signal;HPM_P1;HPM_P2
2022/06/07 00:00:50;;;;;;;3.70;3.13;;;15.90;99.90;;;;;;5049611;28;20433;-80
2022/06/07 00:03:17;;;;;;;3.30;3.00;;;15.90;99.90;;;;;;5049924;28;20499;-80
2022/06/07 00:05:46;;;;;;;5.00;4.05;;;15.70;99.90;;;;;;5031742;28;20323;-80
2022/06/07 00:08:16;;;;;;;5.78;4.47;;;15.70;99.90;;;;;;5049614;28;20052;-80
2022/06/07 00:10:48;;;;;;;9.73;5.28;;;15.70;99.90;;;;;;5030137;28;20052;-80
2022/06/07 00:13:17;;;;;;;6.47;3.55;;;15.70;99.90;;;;;;5015445;28;20044;-80
2022/06/07 00:15:45;;;;;;;3.65;3.35;;;15.70;99.90;;;;;;5032434;28;20056;-80
2022/06/07 00:18:14;;;;;;;3.22;3.00;;;15.80;99.90;;;;;;5031002;28;20049;-79
2022/06/07 00:20:42;;;;;;;4.75;2.85;;;15.80;99.90;;;;;;5031235;28;20426;-87
2022/06/07 00:23:15;;;;;;;3.30;3.08;;;15.80;99.90;;;;;;4999526;28;20056;-85
2022/06/07 00:25:46;;;;;;;4.15;3.85;;;15.70;99.90;;;;;;5013558;28;20038;-87
2022/06/07 00:28:14;;;;;;;3.92;3.63;;;15.70;99.90;;;;;;5027964;28;20061;-87
2022/06/07 00:30:43;;;;;;;5.05;4.57;;;15.70;99.90;;;;;;4977753;28;20555;-87
2022/06/07 00:33:11;;;;;;;7.00;3.55;;;15.60;99.90;;;;;;4991703;28;20046;-85
2022/06/07 00:35:39;;;;;;;4.20;3.90;;;15.70;99.90;;;;;;4992460;28;20514;-87
2022/06/07 00:38:10;;;;;;;3.30;3.03;;;15.60;99.90;;;;;;5007714;28;20414;-86
2022/06/07 00:40:42;;;;;;;8.30;4.68;;;15.60;99.90;;;;;;5023422;28;20049;-85
2022/06/07 00:43:10;;;;;;;4.85;3.20;;;15.60;99.90;;;;;;5007562;28;20053;-86
2022/06/07 00:45:39;;;;;;;3.85;3.53;;;15.60;99.90;;;;;;4999959;28;20402;-87
2022/06/07 00:48:08;;;;;;;5.28;3.97;;;15.60;99.90;;;;;;5029290;28;20041;-87
2022/06/07 00:50:54;;;;;;;5.05;3.47;;;15.60;99.90;;;;;;5010954;28;20038;-85
2022/06/07 00:53:26;;;;;;;3.85;3.55;;;15.60;99.90;;;;;;5005301;28;20506;-85
2022/06/07 00:56:02;;;;;;;4.20;3.80;;;15.60;99.90;;;;;;4990815;28;20049;-86
2022/06/07 00:58:30;;;;;;;4.97;3.38;;;15.60;99.90;;;;;;4986039;28;20054;-85
2022/06/07 01:01:00;;;;;;;4.28;3.88;;;15.60;99.90;;;;;;5026972;28;20037;-85
2022/06/07 01:03:28;;;;;;;5.00;3.95;;;15.50;99.90;;;;;;5011749;28;20057;-85
2022/06/07 01:10:43;;;;;;;4.10;3.65;;;15.50;99.90;;;;;;5000009;28;20431;-85
2022/06/07 01:11:32;;;;;;;4.05;3.72;;;15.50;99.90;;;;;;5006445;28;20049;-85
2022/06/07 01:14:00;;;;;;;5.82;4.07;;;15.50;99.90;;;;;;4986075;28;20053;-85
2022/06/07 01:16:32;;;;;;;4.35;3.63;;;15.40;99.90;;;;;;5015927;28;20037;-85
2022/06/07 01:19:01;;;;;;;5.45;4.97;;;15.40;99.90;;;;;;4999398;28;20065;-86
2022/06/07 01:21:36;;;;;;;3.90;3.60;;;15.30;99.90;;;;;;5032220;28;20045;-87
2022/06/07 01:24:08;;;;;;;5.10;3.20;;;15.30;99.90;;;;;;5000484;28;20164;-86
2022/06/07 01:26:43;;;;;;;5.03;4.38;;;15.30;99.90;;;;;;5015684;28;20383;-89
2022/06/07 01:29:12;;;;;;;5.47;4.88;;;15.10;99.90;;;;;;5031841;28;20045;-87
2022/06/07 01:31:41;;;;;;;6.20;5.22;;;15.10;99.90;;;;;;5032560;28;20056;-87
2022/06/07 01:34:10;;;;;;;10.25;5.70;;;15.00;99.90;;;;;;5016364;28;20049;-86
2022/06/07 01:36:38;;;;;;;5.68;4.00;;;14.90;99.90;;;;;;5016440;28;20418;-89
2022/06/07 01:41:57;;;;;;;5.28;4.70;;;14.60;99.90;;;;;;5045020;28;20410;-91
2022/06/07 01:44:37;;;;;;;6.55;6.05;;;14.60;99.90;;;;;;5037536;28;20041;-90
2022/06/07 01:47:09;;;;;;;4.72;4.32;;;14.50;99.90;;;;;;5021646;28;20044;-92
2022/06/07 01:49:43;;;;;;;3.53;3.22;;;14.40;99.90;;;;;;5033421;28;20372;-93
2022/06/07 01:52:15;;;;;;;5.60;4.60;;;14.30;99.90;;;;;;5001674;28;20049;-90
2022/06/07 01:55:03;;;;;;;6.88;3.83;;;14.20;99.90;;;;;;4992778;28;20080;-91
2022/06/07 01:58:05;;;;;;;5.13;4.18;;;14.10;99.90;;;;;;5030885;28;20049;-92
2022/06/07 02:00:36;;;;;;;4.00;3.70;;;13.90;99.90;;;;;;5001251;28;20404;-92
2022/06/07 02:03:08;;;;;;;6.00;4.47;;;13.80;99.90;;;;;;4999238;28;20507;-91
2022/06/07 02:05:36;;;;;;;5.85;4.35;;;13.80;99.90;;;;;;5018234;28;20483;-92
2022/06/07 02:08:04;;;;;;;6.15;5.50;;;13.70;99.90;;;;;;5018965;28;20044;-93
2022/06/07 02:10:38;;;;;;;8.52;5.43;;;13.70;99.90;;;;;;5034775;28;20045;-92
2022/06/07 02:13:13;;;;;;;5.10;4.60;;;13.70;99.90;;;;;;5020293;28;20499;-92
2022/06/07 02:15:41;;;;;;;5.53;5.03;;;13.70;99.90;;;;;;5034860;28;20375;-93
2022/06/07 02:18:10;;;;;;;5.45;4.95;;;13.70;99.90;;;;;;5017949;28;20633;-94
2022/06/07 02:20:57;;;;;;;14.23;4.82;;;13.70;99.90;;;;;;5020863;28;20056;-91
2022/06/07 02:23:27;;;;;;;7.50;6.05;;;13.70;99.90;;;;;;5002593;28;20515;-91
2022/06/07 02:26:00;;;;;;;14.52;5.55;;;13.70;99.90;;;;;;5001857;28;20049;-93
2022/06/07 02:28:35;;;;;;;6.10;5.50;;;13.70;99.90;;;;;;5033832;28;20402;-93
2022/06/07 02:31:05;;;;;;;5.55;5.05;;;13.70;99.90;;;;;;4989264;28;20371;-93
2022/06/07 02:33:40;;;;;;;7.65;5.90;;;13.70;99.90;;;;;;5033631;28;20038;-89
2022/06/07 02:36:16;;;;;;;6.95;6.13;;;13.70;99.90;;;;;;4998216;28;20402;-92
2022/06/07 02:38:45;;;;;;;6.95;4.53;;;13.70;99.90;;;;;;5032907;28;20037;-92
2022/06/07 02:41:21;;;;;;;7.32;6.63;;;13.70;99.90;;;;;;5015803;28;20037;-93
2022/06/07 02:43:49;;;;;;;6.25;5.65;;;13.70;99.90;;;;;;4996738;28;20049;-92
2022/06/07 02:46:18;;;;;;;6.68;5.30;;;13.70;99.90;;;;;;4995829;28;20607;-90
2022/06/07 02:48:46;;;;;;;7.10;6.40;;;13.80;99.90;;;;;;5007280;28;20053;-91
2022/06/07 02:51:14;;;;;;;12.40;7.18;;;13.80;99.90;;;;;;4999493;28;20041;-90
2022/06/07 02:53:44;;;;;;;5.32;4.82;;;13.90;99.90;;;;;;5030956;28;20057;-90
2022/06/07 02:56:16;;;;;;;7.55;6.30;;;14.00;99.90;;;;;;4999028;28;20522;-90
2022/06/07 02:58:50;;;;;;;11.90;6.65;;;14.00;99.90;;;;;;5014893;28;20479;-91
2022/06/07 03:01:29;;;;;;;7.82;5.72;;;13.90;99.90;;;;;;5000583;28;20423;-89
2022/06/07 03:03:59;;;;;;;6.28;5.03;;;13.90;99.90;;;;;;4983868;28;20057;-90
2022/06/07 03:06:34;;;;;;;5.57;5.07;;;13.90;99.90;;;;;;5015412;28;20633;-89
2022/06/07 03:12:27;;;;;;;7.65;5.72;;;14.00;99.90;;;;;;4972696;28;20054;-90
2022/06/07 03:15:26;;;;;;;6.93;6.13;;;14.00;99.90;;;;;;4993874;28;20046;-90
2022/06/07 03:18:40;;;;;;;5.93;5.32;;;14.00;99.90;;;;;;4980048;28;20052;-88
2022/06/07 03:21:28;;;;;;;7.45;5.65;;;14.00;99.90;;;;;;4984956;28;20041;-90
2022/06/07 03:24:13;;;;;;;7.30;6.53;;;14.00;99.90;;;;;;5007863;28;20060;-90
2022/06/07 03:26:50;;;;;;;8.10;6.65;;;13.90;99.90;;;;;;5013537;28;20045;-90
2022/06/07 03:29:53;;;;;;;6.03;5.47;;;13.90;99.90;;;;;;4996485;28;20041;-90
2022/06/07 03:33:53;;;;;;;5.43;4.65;;;13.80;99.90;;;;;;5003720;28;20049;-91
2022/06/07 03:38:06;;;;;;;4.65;4.25;;;13.80;99.90;;;;;;4967486;28;20397;-91
2022/06/07 03:45:31;;;;;;;6.53;5.10;;;13.60;99.90;;;;;;4967516;28;20038;-92
2022/06/07 03:48:05;;;;;;;4.53;4.15;;;13.50;99.90;;;;;;4957019;28;20529;-92
2022/06/07 03:50:35;;;;;;;10.18;4.32;;;13.40;99.90;;;;;;4976016;28;20409;-91
2022/06/07 03:53:05;;;;;;;6.88;4.68;;;13.40;99.90;;;;;;4993567;28;20526;-94
2022/06/07 03:55:40;;;;;;;3.67;3.35;;;13.30;99.90;;;;;;4961771;28;20149;-90
2022/06/07 03:58:19;;;;;;;5.50;5.03;;;13.30;99.90;;;;;;4993769;28;20046;-89
2022/06/07 04:01:05;;;;;;;7.30;5.43;;;13.30;99.90;;;;;;4992670;28;20092;-91
2022/06/07 04:03:43;;;;;;;6.25;4.50;;;13.30;99.90;;;;;;4986661;28;20045;-92
2022/06/07 04:06:22;;;;;;;4.68;4.10;;;13.30;99.90;;;;;;4997464;28;20042;-90
2022/06/07 04:08:58;;;;;;;5.05;4.45;;;13.30;99.90;;;;;;4982826;28;20065;-92
2022/06/07 04:11:33;;;;;;;6.68;6.03;;;13.30;99.90;;;;;;4982268;28;20045;-90
2022/06/07 04:14:05;;;;;;;4.38;4.00;;;13.30;99.90;;;;;;4997914;28;20038;-90
2022/06/07 04:16:36;;;;;;;4.57;4.18;;;13.30;99.90;;;;;;5014194;28;20061;-91
2022/06/07 04:19:37;;;;;;;19.92;5.10;;;13.30;99.90;;;;;;4982148;28;20049;-90
2022/06/07 04:23:27;;;;;;;;;;;;;;;;;;;;;
2022/06/07 04:26:42;;;;;;;5.50;4.47;;;13.20;99.90;;;;;;4969564;28;20058;-88
2022/06/07 04:29:22;;;;;;;4.33;3.93;;;13.30;99.90;;;;;;4995163;28;20127;-91
2022/06/07 04:32:23;;;;;;;4.82;4.10;;;13.30;99.90;;;;;;5006018;28;20060;-89
2022/06/07 04:34:56;;;;;;;4.30;3.75;;;13.20;99.90;;;;;;5009555;28;20050;-89
2022/06/07 04:37:56;;;;;;;4.72;4.35;;;13.20;99.90;;;;;;5011999;28;20464;-89
2022/06/07 04:41:37;;;;;;;5.57;5.18;;;13.30;99.90;;;;;;4994902;28;20029;-88
2022/06/07 04:44:11;;;;;;;5.50;4.15;;;13.20;99.90;;;;;;5009987;28;20058;-88
2022/06/07 04:46:52;;;;;;;3.70;3.45;;;13.30;99.90;;;;;;4998959;28;20105;-89
2022/06/07 04:52:53;;;;;;;3.63;3.33;;;13.30;99.90;;;;;;4979836;28;20526;-88
2022/06/07 04:55:50;;;;;;;4.78;4.25;;;13.30;99.90;;;;;;4962993;28;20062;-90
2022/06/07 04:59:10;;;;;;;4.78;4.35;;;13.30;99.90;;;;;;4979232;28;20049;-89
2022/06/07 05:02:22;;;;;;;5.75;3.22;;;13.30;99.90;;;;;;4955895;28;20054;-88
2022/06/07 05:05:44;;;;;;;4.18;3.88;;;13.30;99.90;;;;;;4945483;28;20042;-89
2022/06/07 05:08:46;;;;;;;4.38;3.97;;;13.30;99.90;;;;;;5010262;28;20050;-89
2022/06/07 05:12:32;;;;;;;3.55;3.25;;;13.30;99.90;;;;;;4940048;28;20058;-90
2022/06/07 05:16:24;;;;;;;3.90;3.60;;;13.30;99.90;;;;;;4966596;28;20122;-89
2022/06/07 05:23:59;;;;;;;5.03;3.30;;;13.30;99.90;;;;;;4968153;28;20053;-90
2022/06/07 05:31:18;;;;;;;3.25;2.95;;;13.30;99.90;;;;;;5011010;28;20045;-88
2022/06/07 05:33:59;;;;;;;4.63;3.45;;;13.40;99.90;;;;;;5019188;28;20045;-88
2022/06/07 05:36:30;;;;;;;4.50;4.07;;;13.40;99.90;;;;;;5015189;28;20048;-90
2022/06/07 05:39:41;;;;;;;4.07;3.65;;;13.30;99.90;;;;;;5030766;28;20056;-90
2022/06/07 05:43:08;;;;;;;3.67;2.78;;;13.40;99.90;;;;;;5017038;28;20045;-89
2022/06/07 05:47:05;;;;;;;;;;;;;;;;;;;;;
2022/06/07 05:54:23;;;;;;;4.80;4.40;;;13.30;99.90;;;;;;5022671;28;20598;-90
2022/06/07 05:57:10;;;;;;;4.97;3.80;;;13.40;99.90;;;;;;5041713;28;20496;-89
2022/06/07 05:59:43;;;;;;;4.47;4.07;;;13.40;99.90;;;;;;5027869;28;20056;-88
2022/06/07 06:02:21;;;;;;;3.63;3.28;;;13.50;99.90;;;;;;5007540;28;20410;-90
2022/06/07 06:04:52;;;;;;;4.03;3.70;;;13.50;99.90;;;;;;5020627;28;20049;-89
2022/06/07 06:07:21;;;;;;;5.50;3.47;;;13.50;99.90;;;;;;5001104;28;20068;-89
2022/06/07 06:12:50;;;;;;;4.03;3.72;;;13.60;99.90;;;;;;5015665;28;20493;-89
2022/06/07 06:15:19;;;;;;;4.53;4.13;;;13.60;99.90;;;;;;5032342;28;20056;-83
2022/06/07 06:17:48;;;;;;;4.22;3.83;;;13.60;99.90;;;;;;5050387;28;20048;-92
2022/06/07 06:21:42;;;;;;;6.43;4.30;;;13.60;99.90;;;;;;5019203;28;20056;-92
2022/06/07 06:24:11;;;;;;;9.32;4.40;;;13.60;99.90;;;;;;4999534;28;20045;-92
2022/06/07 06:26:41;;;;;;;5.70;5.00;;;13.60;99.90;;;;;;5016052;28;20057;-92
2022/06/07 06:29:12;;;;;;;4.75;4.22;;;13.60;99.90;;;;;;5001589;28;20057;-91
2022/06/07 06:31:41;;;;;;;4.20;3.90;;;13.70;99.90;;;;;;5001166;28;20057;-92
2022/06/07 06:34:13;;;;;;;4.40;3.95;;;13.70;99.90;;;;;;5017928;28;20041;-92
2022/06/07 06:36:41;;;;;;;6.15;5.65;;;13.60;99.90;;;;;;5001551;28;20056;-92
2022/06/07 06:39:20;;;;;;;5.28;4.78;;;13.60;99.90;;;;;;5002343;28;20057;-91
2022/06/07 06:41:51;;;;;;;5.20;4.13;;;13.70;99.90;;;;;;4985441;28;20041;-92
2022/06/07 06:44:24;;;;;;;6.07;4.78;;;13.60;99.90;;;;;;5003634;28;20050;-92
2022/06/07 06:46:57;;;;;;;4.78;4.18;;;13.60;99.90;;;;;;5001357;28;20046;-91
2022/06/07 06:49:26;;;;;;;5.65;4.47;;;13.60;99.90;;;;;;5017813;28;20041;-91
2022/06/07 06:51:55;;;;;;;4.78;3.95;;;13.60;99.90;;;;;;5000873;28;20547;-90
2022/06/07 06:54:30;;;;;;;5.18;4.75;;;13.60;99.90;;;;;;5016060;28;20052;-92
2022/06/07 06:57:03;;;;;;;4.78;3.25;;;13.60;99.90;;;;;;5000127;28;20045;-91
2022/06/07 06:59:32;;;;;;;4.05;3.65;;;13.60;99.90;;;;;;4984791;28;20056;-93
2022/06/07 07:02:02;;;;;;;5.55;4.90;;;13.60;99.90;;;;;;4999744;28;20042;-90
2022/06/07 07:04:53;;;;;;;;;;;13.70;99.90;;;;;;4987634;28;20049;-91
2022/06/07 07:07:21;;;;;;;6.93;4.57;;;13.60;99.90;;;;;;5016636;28;19925;-91
2022/06/07 07:09:50;;;;;;;5.47;4.97;;;13.60;99.90;;;;;;5015598;28;20041;-91
2022/06/07 07:12:18;;;;;;;12.88;6.20;;;13.60;99.90;;;;;;4985004;28;20060;-91
2022/06/07 07:14:56;;;;;;;4.38;3.97;;;13.70;99.90;;;;;;5015569;28;20056;-90
2022/06/07 07:17:32;;;;;;;4.75;4.35;;;13.70;99.90;;;;;;4995152;28;20049;-90
2022/06/07 07:20:05;;;;;;;12.05;4.18;;;13.70;99.90;;;;;;4979666;28;20059;-91
2022/06/07 07:22:37;;;;;;;4.85;4.45;;;13.70;99.90;;;;;;4973392;28;20495;-91
2022/06/07 07:25:06;;;;;;;5.78;3.75;;;13.70;99.90;;;;;;4983298;28;20048;-91
2022/06/07 07:27:34;;;;;;;5.13;4.45;;;13.60;99.90;;;;;;5002023;28;20510;-93
2022/06/07 07:30:03;;;;;;;3.67;3.38;;;13.60;99.90;;;;;;5002119;28;20034;-92
2022/06/07 07:32:37;;;;;;;4.03;3.63;;;13.70;99.90;;;;;;5003248;28;20044;-92
2022/06/07 07:35:17;;;;;;;4.10;3.72;;;13.70;99.90;;;;;;5014787;28;20045;-91
2022/06/07 07:37:54;;;;;;;6.00;4.03;;;13.70;99.90;;;;;;4987770;28;20037;-92
2022/06/07 07:40:22;;;;;;;4.05;3.65;;;13.70;99.90;;;;;;5019326;28;20046;-91
2022/06/07 07:42:50;;;;;;;2.63;2.42;;;13.70;99.90;;;;;;5017886;28;20045;-94
2022/06/07 07:45:28;;;;;;;4.95;4.05;;;13.60;99.90;;;;;;4986766;28;20395;-92
2022/06/07 07:47:59;;;;;;;7.05;4.10;;;13.60;99.90;;;;;;5034473;28;20045;-93
2022/06/07 07:50:37;;;;;;;4.25;3.47;;;13.40;99.90;;;;;;4999874;28;20383;-92
2022/06/07 07:53:05;;;;;;;3.60;2.75;;;13.40;99.90;;;;;;5015852;28;20388;-92
2022/06/07 07:55:34;;;;;;;5.15;3.88;;;13.30;99.90;;;;;;5015452;28;20045;-91
2022/06/07 07:58:05;;;;;;;5.53;3.88;;;13.20;99.90;;;;;;4999738;28;20046;-92
2022/06/07 08:00:34;;;;;;;4.88;3.22;;;13.20;99.90;;;;;;5000079;28;20407;-90
2022/06/07 08:03:08;;;;;;;3.17;2.88;;;13.20;99.90;;;;;;5015550;28;20068;-90
2022/06/07 08:05:43;;;;;;;3.30;3.08;;;13.20;99.90;;;;;;5016836;28;20048;-92
2022/06/07 08:08:11;;;;;;;3.42;3.13;;;13.20;99.90;;;;;;5033188;28;20398;-91
2022/06/07 08:10:40;;;;;;;2.80;2.50;;;13.30;99.90;;;;;;5015308;28;20048;-91
2022/06/07 08:13:08;;;;;;;2.47;2.33;;;13.30;99.90;;;;;;4998957;28;20048;-92
2022/06/07 08:15:36;;;;;;;2.05;1.77;;;13.20;99.90;;;;;;4999133;28;20049;-90
2022/06/07 08:18:04;;;;;;;2.63;2.42;;;13.20;99.90;;;;;;5015011;28;20060;-91
2022/06/07 08:20:35;;;;;;;12.82;3.08;;;13.20;99.90;;;;;;5014633;28;20060;-90
2022/06/07 08:23:06;;;;;;;3.88;2.55;;;13.10;99.90;;;;;;4998497;28;20073;-90
2022/06/07 08:25:34;;;;;;;2.23;2.10;;;13.10;99.90;;;;;;5015343;28;20040;-91
2022/06/07 08:28:03;;;;;;;3.28;3.08;;;13.10;99.90;;;;;;5020108;28;20056;-91
2022/06/07 08:30:33;;;;;;;3.53;3.22;;;13.00;99.90;;;;;;5013451;28;20045;-89
2022/06/07 08:37:32;;;;;;;7.35;3.22;;;13.00;99.90;;;;;;5014420;28;20406;-91
2022/06/07 08:38:35;;;;;;;3.60;2.53;;;13.00;99.90;;;;;;5047024;28;20407;-91
2022/06/07 08:41:05;;;;;;;3.50;2.97;;;13.10;99.90;;;;;;5046651;28;20056;-90
2022/06/07 08:43:34;;;;;;;3.08;2.88;;;13.10;99.90;;;;;;5047371;28;20045;-90
2022/06/07 08:46:02;;;;;;;5.45;2.80;;;13.10;99.90;;;;;;4997099;28;20048;-90
2022/06/07 08:48:38;;;;;;;2.40;2.20;;;13.10;99.90;;;;;;5029693;28;20065;-89
2022/06/07 08:51:26;;;;;;;3.88;2.33;;;13.00;99.90;;;;;;5012246;28;20545;-91
2022/06/07 08:53:57;;;;;;;2.75;2.55;;;13.00;99.90;;;;;;5013293;28;20041;-88
2022/06/07 08:56:30;;;;;;;2.63;2.30;;;13.00;99.90;;;;;;5013005;28;20061;-88
2022/06/07 08:59:06;;;;;;;2.50;2.30;;;13.10;99.90;;;;;;5013004;28;20041;-88
2022/06/07 09:01:49;;;;;;;2.83;2.30;;;13.10;99.90;;;;;;4996879;28;20045;-89
2022/06/07 09:04:27;;;;;;;4.40;3.78;;;13.10;99.90;;;;;;5046453;28;20375;-89
2022/06/07 09:07:00;;;;;;;3.28;2.88;;;13.20;99.90;;;;;;5029322;28;20060;-88
2022/06/07 09:12:28;;;;;;;2.22;2.05;;;13.40;99.90;;;;;;5013880;28;20403;-91
2022/06/07 09:14:59;;;;;;;3.05;2.85;;;13.40;99.90;;;;;;4997689;28;20083;-90
2022/06/07 09:17:55;;;;;;;2.53;2.28;;;13.40;99.90;;;;;;5029445;28;20053;-92
2022/06/07 09:20:41;;;;;;;2.42;2.22;;;13.60;99.90;;;;;;5019231;28;20056;-93
2022/06/07 09:23:20;;;;;;;5.53;2.53;;;13.60;99.90;;;;;;5050920;28;20053;-91
2022/06/07 09:25:52;;;;;;;1.88;1.77;;;13.50;99.90;;;;;;5018197;28;20041;-92
2022/06/07 09:28:27;;;;;;;3.20;2.53;;;13.50;99.90;;;;;;5018141;28;20049;-91
2022/06/07 09:31:09;;;;;;;2.45;2.20;;;13.50;99.90;;;;;;5051196;28;20041;-91
2022/06/07 09:33:56;;;;;;;2.88;2.65;;;13.50;99.90;;;;;;5018121;28;20056;-90
2022/06/07 09:36:25;;;;;;;2.88;2.67;;;13.50;99.90;;;;;;5018136;28;20052;-91
2022/06/07 09:38:56;;;;;;;3.28;2.97;;;13.50;99.90;;;;;;5017503;28;20044;-92
2022/06/07 09:41:38;;;;;;;2.60;2.40;;;13.50;99.90;;;;;;5033995;28;20479;-90
2022/06/07 09:44:32;;;;;;;3.30;2.92;;;13.40;99.90;;;;;;5002542;28;20060;-91
2022/06/07 09:47:04;;;;;;;2.65;2.45;;;13.50;99.90;;;;;;5050674;28;20498;-91
2022/06/07 09:50:14;;;;;;;3.83;3.50;;;13.60;99.90;;;;;;5017825;28;20041;-91
2022/06/07 09:52:49;;;;;;;5.82;2.47;;;13.60;99.90;;;;;;5018221;28;20053;-91
2022/06/07 09:55:29;;;;;;;4.13;2.60;;;13.70;99.90;;;;;;5050787;28;20056;-93
2022/06/07 09:58:23;;;;;;;3.55;3.25;;;13.60;99.90;;;;;;5017660;28;20049;-91
2022/06/07 10:00:57;;;;;;;2.78;2.58;;;13.70;99.90;;;;;;5001457;28;20596;-92
2022/06/07 10:03:34;;;;;;;3.47;3.17;;;13.70;99.90;;;;;;5053537;28;20068;-90
2022/06/07 10:06:28;;;;;;;2.88;2.53;;;13.70;99.90;;;;;;5037594;28;20056;-92
2022/06/07 10:09:04;;;;;;;3.78;3.40;;;13.70;99.90;;;;;;5038242;28;20068;-90
2022/06/07 10:12:02;;;;;;;4.28;3.88;;;13.80;99.90;;;;;;5054941;28;20045;-91
2022/06/07 10:15:02;;;;;;;4.90;3.42;;;13.80;99.90;;;;;;5005679;28;20406;-91
2022/06/07 10:17:45;;;;;;;4.05;3.63;;;13.90;99.90;;;;;;5021223;28;20044;-92
2022/06/07 10:20:22;;;;;;;4.35;3.70;;;13.90;99.90;;;;;;5021842;28;20056;-88
2022/06/07 10:23:33;;;;;;;4.57;4.18;;;14.00;99.90;;;;;;5020115;28;20045;-87
2022/06/07 10:26:37;;;;;;;7.17;4.37;;;13.90;99.90;;;;;;5009316;28;20049;-92
2022/06/07 10:29:45;;;;;;;4.97;4.57;;;13.90;99.90;;;;;;4985586;28;20045;-91
2022/06/07 10:32:33;;;;;;;8.85;4.75;;;13.80;99.90;;;;;;5017819;28;20041;-93
2022/06/07 10:35:28;;;;;;;4.65;4.05;;;13.80;99.90;;;;;;5000968;28;20778;-92
2022/06/07 10:38:19;;;;;;;4.10;3.80;;;13.70;99.90;;;;;;4985716;28;20410;-90
2022/06/07 10:41:15;;;;;;;5.13;4.13;;;13.70;99.90;;;;;;4999799;28;20056;-88
2022/06/07 10:43:56;;;;;;;5.70;4.57;;;13.70;99.90;;;;;;4986247;28;20048;-93
2022/06/07 10:46:27;;;;;;;5.68;4.38;;;13.80;99.90;;;;;;5001525;28;20041;-92
2022/06/07 10:49:31;;;;;;;5.38;4.97;;;13.80;99.90;;;;;;5001409;28;20785;-91
2022/06/07 10:52:25;;;;;;;4.68;4.28;;;13.80;99.90;;;;;;5016789;28;20506;-91
2022/06/07 10:55:29;;;;;;;9.07;5.07;;;13.90;99.90;;;;;;5017782;28;20487;-93
2022/06/07 10:58:16;;;;;;;5.07;4.65;;;13.90;99.90;;;;;;5034030;28;20038;-88
2022/06/07 11:00:50;;;;;;;5.80;5.07;;;13.90;99.90;;;;;;5015995;28;20048;-91
2022/06/07 11:03:38;;;;;;;6.22;5.43;;;13.80;99.90;;;;;;5002815;28;20052;-92
2022/06/07 11:09:41;;;;;;;4.78;4.35;;;13.90;99.90;;;;;;5015597;28;20051;-93
2022/06/07 11:12:32;;;;;;;10.00;5.15;;;13.70;99.90;;;;;;5017711;28;20064;-92
2022/06/07 11:15:06;;;;;;;4.78;4.32;;;13.50;99.90;;;;;;5011146;28;20060;-92
2022/06/07 11:17:50;;;;;;;6.03;5.25;;;13.50;99.90;;;;;;5013974;28;20033;-93
2022/06/07 11:20:28;;;;;;;5.80;5.20;;;13.50;99.90;;;;;;5001493;28;20068;-93
2022/06/07 11:23:05;;;;;;;8.35;5.45;;;13.50;99.90;;;;;;5001503;28;20045;-92
2022/06/07 11:25:42;;;;;;;6.57;5.40;;;13.60;99.90;;;;;;5033848;28;20045;-92
2022/06/07 11:28:13;;;;;;;7.22;6.10;;;13.60;99.90;;;;;;5002035;28;20054;-93
2022/06/07 11:30:44;;;;;;;6.82;5.22;;;13.70;99.90;;;;;;5017853;28;20037;-93
2022/06/07 11:33:29;;;;;;;6.55;5.43;;;13.70;99.90;;;;;;5034636;28;20049;-92
2022/06/07 11:36:24;;;;;;;5.70;5.10;;;13.70;99.90;;;;;;5034285;28;20045;-92
2022/06/07 11:38:57;;;;;;;6.57;5.88;;;13.90;99.90;;;;;;5032784;28;20045;-92
2022/06/07 11:41:37;;;;;;;9.80;6.13;;;13.90;99.90;;;;;;5001404;28;20052;-92
2022/06/07 11:44:34;;;;;;;8.02;6.50;;;14.00;99.90;;;;;;5036638;28;20045;-89
2022/06/07 11:47:08;;;;;;;8.63;7.28;;;14.30;99.90;;;;;;5016820;28;20049;-91
2022/06/07 11:49:40;;;;;;;8.13;7.00;;;14.30;99.90;;;;;;5031277;28;20056;-89
2022/06/07 11:52:15;;;;;;;5.88;5.28;;;14.50;99.90;;;;;;5033170;28;20073;-89
2022/06/07 11:54:53;;;;;;;7.15;5.95;;;14.60;99.90;;;;;;5032204;28;20499;-89
2022/06/07 11:57:56;;;;;;;7.32;5.88;;;14.60;99.90;;;;;;5015504;28;20056;-88
2022/06/07 12:00:30;;;;;;;7.55;6.85;;;14.80;99.90;;;;;;5031790;28;20058;-89
2022/06/07 12:02:57;;;;;;;7.82;7.07;;;14.50;99.90;;;;;;5015302;28;20042;-86
2022/06/07 12:05:52;;;;;;;7.10;5.90;;;14.50;99.90;;;;;;5014669;28;20490;-88
2022/06/07 12:08:47;;;;;;;6.70;5.50;;;14.60;99.90;;;;;;5014236;28;20061;-89
2022/06/07 12:11:28;;;;;;;10.32;7.05;;;14.50;99.90;;;;;;4997652;28;20049;-87
2022/06/07 12:13:56;;;;;;;5.60;4.85;;;14.50;99.90;;;;;;5029972;28;20048;-87
2022/06/07 12:16:43;;;;;;;11.55;7.60;;;14.50;99.90;;;;;;5031932;28;20041;-89
2022/06/07 12:19:22;;;;;;;7.85;6.95;;;14.50;99.90;;;;;;5045966;28;20053;-89
2022/06/07 12:22:02;;;;;;;6.97;5.65;;;14.60;99.90;;;;;;4995928;28;20049;-87
2022/06/07 12:24:39;;;;;;;7.73;6.93;;;14.60;99.90;;;;;;5018688;28;20045;-88
2022/06/07 12:27:21;;;;;;;8.60;7.63;;;14.60;99.90;;;;;;5029402;28;20053;-87
2022/06/07 12:29:50;;;;;;;5.53;5.03;;;14.60;99.90;;;;;;5012948;28;20033;-89
2022/06/07 12:32:37;;;;;;;6.97;5.80;;;14.50;99.90;;;;;;5013698;28;20483;-88
2022/06/07 12:35:26;;;;;;;7.72;6.90;;;14.60;99.90;;;;;;4996630;28;20045;-89
2022/06/07 12:37:56;;;;;;;7.18;5.82;;;14.70;99.90;;;;;;5013094;28;20498;-90
2022/06/07 12:40:46;;;;;;;10.60;8.00;;;14.80;99.90;;;;;;4996537;28;20057;-88
2022/06/07 12:43:37;;;;;;;7.60;6.20;;;14.70;99.90;;;;;;4995643;28;20053;-88
2022/06/07 12:46:25;;;;;;;7.70;6.03;;;14.70;99.90;;;;;;4997366;28;20049;-88
2022/06/07 12:48:55;;;;;;;5.05;4.63;;;14.90;99.90;;;;;;5027593;28;20046;-87
2022/06/07 12:51:36;;;;;;;5.65;4.72;;;14.90;99.90;;;;;;4993473;28;20404;-88
2022/06/07 12:54:18;;;;;;;5.75;5.15;;;14.80;99.90;;;;;;5021197;28;20037;-85
2022/06/07 12:56:52;;;;;;;4.70;4.25;;;14.70;99.90;;;;;;4996236;28;20052;-88
2022/06/07 12:59:29;;;;;;;4.75;4.22;;;14.70;99.90;;;;;;4996469;28;20423;-87
2022/06/07 13:01:57;;;;;;;4.53;3.97;;;14.80;99.90;;;;;;4996458;28;20396;-87
2022/06/07 13:04:47;;;;;;;3.78;2.92;;;14.80;99.90;;;;;;4996864;28;20410;-91
2022/06/07 13:07:23;;;;;;;5.68;4.00;;;14.80;99.90;;;;;;5011875;28;20053;-89
2022/06/07 13:10:20;;;;;;;3.78;3.40;;;14.90;99.90;;;;;;5014977;28;20049;-88
2022/06/07 13:12:52;;;;;;;4.32;3.60;;;15.00;99.90;;;;;;4996158;28;20068;-89
2022/06/07 13:15:27;;;;;;;4.75;3.40;;;14.90;99.90;;;;;;5013216;28;20393;-88
2022/06/07 13:18:13;;;;;;;4.32;2.60;;;15.00;99.90;;;;;;4992373;28;20041;-88
2022/06/07 13:20:44;;;;;;;4.22;2.88;;;15.10;99.90;;;;;;4992977;28;20054;-87
2022/06/07 13:23:18;;;;;;;15.52;4.20;;;15.10;99.90;;;;;;4989067;28;20064;-90
2022/06/07 13:25:47;;;;;;;2.50;2.30;;;15.00;99.90;;;;;;5027083;28;20056;-88
2022/06/07 13:28:19;;;;;;;3.03;2.83;;;15.00;99.90;;;;;;5049246;28;20502;-90
2022/06/07 13:30:54;;;;;;;2.80;2.55;;;15.00;99.90;;;;;;5015785;28;20056;-89
2022/06/07 13:33:30;;;;;;;3.88;2.95;;;15.00;99.90;;;;;;5015164;28;20597;-90
2022/06/07 13:36:03;;;;;;;2.92;2.63;;;15.00;99.90;;;;;;5015893;28;20053;-90
2022/06/07 13:38:39;;;;;;;3.08;2.88;;;15.20;99.90;;;;;;5019253;28;20045;-90
2022/06/07 13:41:10;;;;;;;5.03;3.13;;;15.20;99.90;;;;;;5035858;28;20052;-90
2022/06/07 13:43:52;;;;;;;3.60;3.30;;;15.30;99.90;;;;;;5020105;28;20049;-90
2022/06/07 13:47:00;;;;;;;4.95;3.17;;;15.30;99.90;;;;;;5054267;28;20041;-90
2022/06/07 13:55:40;;;;;;;2.80;2.60;;;15.40;99.90;;;;;;5031559;28;20046;-91
2022/06/07 13:58:08;;;;;;;4.25;3.20;;;15.50;99.90;;;;;;5032990;28;20057;-89
2022/06/07 14:00:36;;;;;;;3.63;3.30;;;15.60;99.90;;;;;;5033343;28;20082;-88
2022/06/07 14:03:21;;;;;;;3.22;2.92;;;15.80;99.90;;;;;;5032349;28;20053;-88
2022/06/07 14:05:50;;;;;;;4.25;3.45;;;15.80;99.90;;;;;;5031296;28;20046;-91
2022/06/07 14:08:18;;;;;;;3.28;3.03;;;15.70;99.90;;;;;;5034289;28;20041;-89
2022/06/07 14:10:46;;;;;;;5.53;3.72;;;15.70;99.90;;;;;;5031659;28;20438;-91
2022/06/07 14:13:15;;;;;;;2.83;2.60;;;15.80;99.90;;;;;;5033838;28;20048;-89
2022/06/07 14:15:46;;;;;;;2.83;2.60;;;15.90;99.90;;;;;;5050047;28;20053;-91
2022/06/07 14:18:16;;;;;;;;;;;16.00;99.90;;;;;;5032563;28;20053;-90
2022/06/07 14:20:47;;;;;;;2.65;2.38;;;16.10;99.90;;;;;;5033340;28;19996;-91
2022/06/07 14:23:18;;;;;;;2.35;2.20;;;16.00;99.90;;;;;;5032543;28;20065;-91
2022/06/07 14:25:46;;;;;;;2.80;2.60;;;15.90;99.90;;;;;;5015264;28;20052;-91
2022/06/07 14:28:21;;;;;;;2.40;2.20;;;15.80;99.90;;;;;;5021210;28;20491;-90
2022/06/07 14:30:57;;;;;;;2.75;2.28;;;15.90;99.90;;;;;;5035221;28;20041;-90
2022/06/07 14:33:26;;;;;;;2.97;2.75;;;15.90;99.90;;;;;;5053176;28;20041;-90
2022/06/07 14:35:55;;;;;;;2.42;2.22;;;15.90;99.90;;;;;;5019026;28;20060;-91
2022/06/07 14:38:24;;;;;;;2.40;2.20;;;15.90;99.90;;;;;;5018325;28;20128;-90
2022/06/07 14:40:52;;;;;;;2.30;2.10;;;15.90;99.90;;;;;;5017960;28;20510;-91